Englewood, Tennessee
Current Conditions -  °F | °C
As of 12:35 PM on Tuesday 21 Oct 2014 (Local Time) from KMMI Reporting Station
Few Clouds Few Clouds  
Wind Chill: 64°   Ceiling: Unl
Heat Index: 64°   Visibility: 10mi
Dew Point: 46°   Wind: 8mph
Humidity: 52%   Direction: 320°NW
Pressure: 30.06"   Gusts: NA
Location:  35.42°N, 84.49°W
Report Text: KMMI 211635Z AUTO 32007KT 10SM FEW039 18/08 A3006 RMK
Loading
Personal Weather Stations






























Interactive Weather Map
Tropical Storm Tracking
New forecast layout! Learn more

10-Day Weather Forecast

Advertisements
Track Severe Weather on mobile